Latest Weather Observations for Normanton

IDQ60801

Issued at 6:32 pm EST Thursday 26 May 2016 (issued every 30 minutes, with the page automatically refreshed every 10 minutes)

About weather observations | Map of weather stations | Latest weather observations for QLD | Other Formats
Station Details ID: 029063 Name: NORMANTON AIRPORT Lat: -17.69 Lon: 141.07 Height: 18.42 m
Data from the previous 72 hours. | See also: Recent months at Normanton
Date/Time
EST
Temp
°C
App
Temp
°C
Dew
Point
Rel
Hum
%
Delta-T
°C
Wind Press
QNH
hPa
Press
MSL
hPa
Rain
since 9 am
mm
Dir
 
Spd
km/h
Gust
km/h
Spd
kts
Gust
kts
26/06:30pm 26.7 31.7 22.5 78 2.8 CALM 0 6 0 3 1012.0 - 24.0
26/06:00pm 27.8 32.4 23.2 76 3.1 NNE 4 7 2 4 1011.9 1011.8 24.0
26/05:30pm 28.5 32.2 22.3 69 4.2 E 6 7 3 4 1012.1 - 24.0
26/05:00pm 29.0 32.6 23.0 70 4.1 NNW 9 13 5 7 1012.0 - 24.0
26/04:30pm 29.0 32.3 22.5 68 4.4 N 9 13 5 7 1012.1 - 24.0
26/04:00pm 26.8 30.6 24.1 85 1.9 NW 11 13 6 7 1012.1 - 24.0
26/03:30pm 24.6 28.3 23.2 92 0.9 ENE 9 13 5 7 1012.7 - 24.0
26/03:03pm 24.7 28.9 23.5 93 0.8 NW 7 15 4 8 1013.3 - 23.8
26/03:00pm 24.8 29.5 23.4 92 1.0 WNW 4 9 2 5 1013.3 - 23.8
26/02:30pm 24.3 27.5 23.1 93 0.8 W 11 13 6 7 1013.3 - 22.2
26/02:07pm 24.3 27.0 23.4 95 0.6 W 15 17 8 9 1013.6 - 20.6
26/02:00pm 24.5 27.6 22.9 91 1.1 W 11 17 6 9 1013.6 - 18.6
26/01:30pm 25.4 28.9 23.5 89 1.3 SSW 11 15 6 8 1013.8 - 17.4
26/01:00pm 24.7 27.9 23.1 91 1.1 W 11 28 6 15 1014.3 - 11.8
26/12:52pm 24.8 25.5 22.3 86 1.7 NW 22 28 12 15 1014.5 - 2.8
26/12:30pm 27.7 29.7 22.9 75 3.3 SSE 17 22 9 12 1014.3 - 0.0
26/12:00pm 27.1 28.5 22.5 76 3.1 SSE 19 24 10 13 1014.7 1014.6 0.0
26/11:30am 29.9 34.3 22.1 63 5.3 NW 2 9 1 5 1015.0 - 0.0
26/11:00am 28.8 32.4 21.3 64 5.0 NE 4 7 2 4 1015.4 - 0.0
26/10:30am 29.1 32.7 22.1 66 4.7 NNE 6 11 3 6 1015.7 - 0.0
26/10:00am 28.1 32.5 22.8 73 3.6 NNE 4 9 2 5 1015.7 - 0.0
26/09:30am 27.1 31.7 23.1 79 2.7 E 4 7 2 4 1015.7 - 0.0
26/09:00am 26.1 31.4 23.0 83 2.1 CALM 0 6 0 3 1015.5 1015.4 0.4
26/08:30am 25.2 29.3 22.9 87 1.6 NNE 6 9 3 5 1015.1 - 0.4
26/08:00am 24.7 29.9 22.9 90 1.2 CALM 0 7 0 4 1014.6 - 0.4
26/07:30am 24.3 29.5 22.9 92 0.9 CALM 0 0 0 0 1014.3 - 0.4
26/07:00am 23.8 28.4 22.4 92 0.9 SE 2 6 1 3 1014.1 - 0.4
26/06:30am 24.0 27.9 23.0 94 0.7 SSE 7 9 4 5 1013.6 - 0.4
26/06:00am 24.0 28.9 23.0 94 0.7 WSW 2 7 1 4 1013.4 - 0.4
26/05:30am 24.0 27.6 23.1 95 0.6 WSW 9 13 5 7 1013.2 - 0.4
26/05:00am 24.2 27.9 23.2 94 0.7 SSW 9 13 5 7 1013.0 - 0.4
26/04:30am 24.2 27.3 22.8 92 0.9 SW 11 13 6 7 1013.1 - 0.4
26/04:00am 24.9 28.6 23.3 91 1.1 NNW 9 13 5 7 1013.3 - 0.0
26/03:30am 24.7 29.3 23.1 91 1.1 SSE 4 7 2 4 1012.8 - 0.0
26/03:00am 24.6 28.7 23.0 91 1.1 SW 6 7 3 4 1012.7 1012.6 0.0
26/02:30am 24.5 28.8 23.3 93 0.8 W 6 7 3 4 1012.8 - 0.0
26/02:00am 24.6 29.6 23.2 92 0.9 WSW 2 6 1 3 1012.8 - 0.0
26/01:30am 24.6 29.3 23.4 93 0.8 W 4 7 2 4 1013.1 - 0.0
26/01:00am 24.8 29.7 23.6 93 0.8 SW 4 7 2 4 1013.4 - 0.0
26/12:30am 24.8 29.3 23.6 93 0.8 WSW 6 7 3 4 1013.6 - 0.0
26/12:00am 24.9 29.2 23.7 93 0.8 WSW 7 9 4 5 1013.7 1013.6 0.0
 
Date/Time
EST
Temp
°C
App
Temp
°C
Dew
Point
Rel
Hum
%
Delta-T
°C
Wind Press
QNH
hPa
Press
MSL
hPa
Rain
since 9 am
mm
Dir
 
Spd
km/h
Gust
km/h
Spd
kts
Gust
kts
25/11:30pm 24.9 30.5 23.5 92 1.0 CALM 0 0 0 0 1013.8 - 0.0
25/11:00pm 25.0 30.5 23.4 91 1.1 CALM 0 0 0 0 1013.8 - 0.0
25/10:30pm 25.3 29.5 23.4 89 1.3 NNW 7 9 4 5 1013.9 - 0.0
25/10:00pm 25.8 29.8 23.1 85 1.8 N 7 11 4 6 1013.7 - 0.0
25/09:30pm 25.5 30.9 23.2 87 1.6 CALM 0 0 0 0 1013.4 - 0.0
25/09:00pm 25.7 30.6 22.4 82 2.2 CALM 0 0 0 0 1013.2 1013.1 0.0
25/08:30pm 26.3 31.4 22.6 80 2.5 CALM 0 0 0 0 1013.0 - 0.0
25/08:00pm 26.7 32.0 23.0 80 2.5 CALM 0 0 0 0 1012.9 - 0.0
25/07:30pm 26.7 31.2 21.5 73 3.5 CALM 0 0 0 0 1012.6 - 0.0
25/07:00pm 27.0 31.5 21.5 72 3.7 CALM 0 0 0 0 1012.2 - 0.0
25/06:30pm 28.1 32.1 22.1 70 4.0 NNW 4 6 2 3 1012.0 - 0.0
25/06:00pm 28.9 32.0 21.4 64 5.0 N 7 11 4 6 1011.7 1011.6 0.0
25/05:30pm 28.9 31.8 21.7 65 4.8 N 9 13 5 7 1011.4 - 0.0
25/05:00pm 29.1 31.0 20.5 59 5.7 N 11 17 6 9 1011.1 - 0.0
25/04:30pm 30.4 33.1 20.3 54 6.7 NNE 6 9 3 5 1011.1 - 0.0
25/04:00pm 30.9 33.3 19.6 51 7.4 NNE 6 11 3 6 1011.0 - 0.0
25/03:30pm 30.4 32.8 20.0 53 6.9 N 7 11 4 6 1011.0 - 0.0
25/03:00pm 30.8 34.2 21.0 56 6.6 N 4 17 2 9 1011.0 1010.9 0.0
25/02:30pm 30.7 33.2 20.3 53 6.9 NNE 7 13 4 7 1011.3 - 0.0
25/02:00pm 30.8 33.2 20.1 53 7.1 NW 7 15 4 8 1011.6 - 0.0
25/01:30pm 30.8 34.3 20.4 54 6.9 SW 2 7 1 4 1012.2 - 0.0
25/01:00pm 29.5 31.9 20.9 60 5.7 N 9 13 5 7 1012.7 - 0.0
25/12:30pm 30.1 32.4 20.6 56 6.3 NE 9 19 5 10 1013.1 - 0.0
25/12:00pm 29.6 32.1 21.0 60 5.7 NNE 9 15 5 8 1013.7 1013.6 0.0
25/11:30am 28.5 31.0 21.0 64 5.0 E 9 15 5 8 1014.1 - 0.0
25/11:00am 28.6 31.0 20.9 63 5.1 E 9 17 5 9 1014.5 - 0.0
25/10:30am 27.9 30.6 21.4 67 4.3 NE 9 13 5 7 1014.7 - 0.0
25/10:00am 27.1 29.2 20.9 69 4.1 E 11 17 6 9 1014.9 - 0.0
25/09:30am 25.9 28.0 20.9 74 3.3 E 11 17 6 9 1014.9 - 0.0
25/09:00am 26.1 28.8 21.3 75 3.2 ENE 9 19 5 10 1014.5 1014.4 0.2
25/08:30am 25.6 28.1 21.7 79 2.6 NE 11 15 6 8 1014.5 - 0.2
25/08:00am 23.8 26.9 21.5 87 1.5 E 7 11 4 6 1014.2 - 0.2
25/07:30am 23.1 26.4 21.4 90 1.1 E 6 9 3 5 1014.0 - 0.2
25/07:00am 22.6 25.6 20.9 90 1.1 E 6 7 3 4 1013.7 - 0.2
25/06:30am 22.8 25.5 20.7 88 1.4 E 7 11 4 6 1013.1 - 0.2
25/06:00am 23.0 25.2 20.5 86 1.6 ENE 9 11 5 6 1012.9 1012.8 0.2
25/05:30am 23.1 26.7 20.6 86 1.6 ESE 2 9 1 5 1013.0 - 0.2
25/05:00am 23.1 26.0 20.6 86 1.6 ESE 6 7 3 4 1012.6 - 0.2
25/04:30am 23.1 25.8 20.6 86 1.6 SE 7 9 4 5 1012.5 - 0.2
25/04:00am 23.4 26.3 20.7 85 1.8 SE 6 9 3 5 1012.4 - 0.2
25/03:30am 23.7 26.1 20.8 84 1.9 SSE 9 11 5 6 1012.4 - 0.2
25/03:00am 23.8 26.0 21.1 85 1.8 SSE 11 13 6 7 1012.7 1012.6 0.2
25/02:30am 23.9 26.0 21.0 84 1.9 SSE 11 15 6 8 1013.0 - 0.2
25/02:00am 24.2 26.3 20.9 82 2.2 SSE 11 13 6 7 1013.2 - 0.2
25/01:30am 24.2 26.0 21.1 83 2.0 SSE 13 17 7 9 1013.3 - 0.2
25/01:00am 24.1 25.9 21.2 84 1.9 S 13 17 7 9 1013.7 - 0.2
25/12:30am 24.2 26.1 21.3 84 1.9 S 13 15 7 8 1013.7 - 0.2
25/12:00am 24.2 26.4 21.1 83 2.0 SSE 11 15 6 8 1013.8 1013.7 0.2
 
Date/Time
EST
Temp
°C
App
Temp
°C
Dew
Point
Rel
Hum
%
Delta-T
°C
Wind Press
QNH
hPa
Press
MSL
hPa
Rain
since 9 am
mm
Dir
 
Spd
km/h
Gust
km/h
Spd
kts
Gust
kts
24/11:30pm 24.5 26.7 21.2 82 2.2 S 11 13 6 7 1014.0 - 0.2
24/11:00pm 24.1 26.3 21.2 84 1.9 S 11 13 6 7 1014.1 - 0.2
24/10:30pm 24.3 27.0 21.4 84 1.9 SSE 9 11 5 6 1014.2 - 0.2
24/10:00pm 24.7 27.7 21.2 81 2.3 S 7 7 4 4 1014.6 - 0.2
24/09:30pm 24.9 27.2 21.4 81 2.3 S 11 13 6 7 1014.1 - 0.2
24/09:00pm 25.0 26.9 21.3 80 2.4 SSE 13 15 7 8 1013.7 1013.6 0.2
24/08:30pm 25.2 27.1 21.3 79 2.6 S 13 19 7 10 1013.7 - 0.2
24/08:00pm 25.1 27.4 21.4 80 2.4 S 11 15 6 8 1013.9 - 0.2
24/07:30pm 25.0 29.9 22.3 85 1.8 CALM 0 0 0 0 1014.0 - 0.2
24/07:00pm 25.2 28.7 21.9 82 2.2 SW 6 7 3 4 1013.9 - 0.2
24/06:30pm 25.3 30.4 22.6 85 1.8 CALM 0 0 0 0 1013.3 - 0.2
24/06:00pm 25.3 29.8 21.6 80 2.5 CALM 0 0 0 0 1013.0 - 0.2
24/05:30pm 26.3 29.8 21.1 73 3.4 SSE 4 9 2 5 1012.6 - 0.2
24/05:00pm 26.4 28.8 20.9 72 3.6 S 9 11 5 6 1012.0 - 0.2
24/04:30pm 26.6 28.6 20.7 70 3.9 S 11 15 6 8 1012.0 - 0.2
24/04:00pm 26.6 29.5 20.7 70 3.9 SSE 6 7 3 4 1012.3 - 0.2
24/03:30pm 26.6 29.2 20.4 69 4.1 SSE 7 9 4 5 1012.4 - 0.2
24/03:00pm 26.7 29.0 19.8 66 4.5 SE 7 11 4 6 1012.2 1012.1 0.2
24/02:30pm 27.0 29.1 20.1 66 4.5 E 9 13 5 7 1012.8 - 0.2
24/02:00pm 26.6 28.8 19.5 65 4.6 ESE 7 11 4 6 1013.5 - 0.2
24/01:30pm 26.7 28.4 20.1 67 4.3 E 11 15 6 8 1013.6 - 0.2
24/01:00pm 26.6 28.1 19.7 66 4.5 E 11 19 6 10 1014.1 - 0.2
24/12:30pm 26.6 28.0 19.5 65 4.6 E 11 19 6 10 1014.5 - 0.2
24/12:00pm 26.8 27.8 19.4 64 4.8 E 13 20 7 11 1014.5 1014.4 0.2
24/11:30am 26.6 27.5 19.2 64 4.8 E 13 22 7 12 1015.0 - 0.0
24/11:00am 26.6 27.3 19.7 66 4.5 E 15 26 8 14 1015.1 - 0.0
24/10:30am 26.3 27.3 19.4 66 4.5 E 13 20 7 11 1015.1 - 0.0
24/10:00am 25.5 27.2 20.1 72 3.5 ESE 11 20 6 11 1015.7 - 0.0
24/09:30am 24.8 27.0 20.5 77 2.8 SE 9 15 5 8 1015.6 - 0.0
24/09:00am 24.4 26.3 20.5 79 2.5 SSE 11 17 6 9 1015.4 1015.3 1.0
24/08:30am 24.0 26.2 20.5 81 2.3 SSE 9 15 5 8 1015.3 - 1.0
24/08:00am 23.6 26.3 20.7 84 1.9 SSE 7 11 4 6 1015.0 - 1.0
24/07:30am 23.2 26.1 21.1 88 1.4 S 7 9 4 5 1014.8 - 1.0
24/07:00am 22.8 24.9 20.9 89 1.2 S 11 13 6 7 1014.6 - 1.0
24/06:30am 23.1 26.4 20.8 87 1.5 SSE 4 7 2 4 1014.4 - 1.0
24/06:00am 22.9 25.6 20.6 87 1.5 SE 7 11 4 6 1014.0 1013.9 1.0
24/05:30am 23.1 25.0 20.6 86 1.6 SSE 11 13 6 7 1013.5 - 1.0
24/05:00am 22.8 25.1 20.7 88 1.4 S 9 13 5 7 1013.3 - 1.0
24/04:30am 22.6 24.9 20.7 89 1.2 SSE 9 11 5 6 1013.3 - 1.0
24/04:00am 22.4 24.9 20.3 88 1.4 ESE 7 11 4 6 1013.4 - 1.0
24/03:30am 22.3 24.5 20.4 89 1.2 ESE 9 15 5 8 1013.5 - 1.0
24/03:00am 22.4 24.6 20.5 89 1.2 ESE 9 15 5 8 1013.9 1013.8 1.0
24/02:30am 22.3 25.0 20.6 90 1.1 ESE 7 11 4 6 1014.1 - 1.0
24/02:00am 22.3 25.6 20.8 91 1.0 E 4 7 2 4 1014.6 - 1.0
24/01:30am 22.4 25.2 20.9 91 1.0 E 7 11 4 6 1014.9 - 1.0
24/01:00am 22.5 24.5 20.8 90 1.1 E 11 17 6 9 1014.9 - 1.0
24/12:30am 22.9 25.1 21.2 90 1.1 ENE 11 22 6 12 1015.1 - 1.0
24/12:00am 23.1 27.6 22.3 95 0.5 ESE 2 7 1 4 1015.0 1014.9 1.0
 
Date/Time
EST
Temp
°C
App
Temp
°C
Dew
Point
Rel
Hum
%
Delta-T
°C
Wind Press
QNH
hPa
Press
MSL
hPa
Rain
since 9 am
mm
Dir
 
Spd
km/h
Gust
km/h
Spd
kts
Gust
kts
23/11:30pm 23.1 26.7 22.3 95 0.5 SE 7 13 4 7 1015.1 - 1.0
23/11:00pm 23.3 26.8 22.1 93 0.8 SE 7 11 4 6 1015.2 - 0.2
23/10:30pm 23.2 25.4 21.8 92 0.9 SSE 13 17 7 9 1015.2 - 0.2
23/10:00pm 23.8 26.5 22.2 91 1.1 SE 11 17 6 9 1015.1 - 0.2
23/09:30pm 24.6 28.2 22.3 87 1.5 SE 7 11 4 6 1014.9 - 0.2
23/09:00pm 25.0 28.7 22.3 85 1.8 SSE 6 13 3 7 1014.6 1014.5 0.2
23/08:30pm 25.1 29.1 22.0 83 2.1 SE 4 9 2 5 1014.6 - 0.2
23/08:00pm 25.5 29.8 22.0 81 2.3 SE 2 9 1 5 1014.3 - 0.2
23/07:30pm 26.0 29.2 22.3 80 2.5 SSE 9 13 5 7 1013.8 - 0.2
23/07:00pm 25.7 30.6 22.4 82 2.2 CALM 0 0 0 0 1013.4 - 0.2

Other Formats:

Comma delimited format used in spreadsheet applications
http://www.bom.gov.au/fwo/IDQ60801/IDQ60801.94266.axf

JavaScript Object Notation format (JSON) in row-major order
http://www.bom.gov.au/fwo/IDQ60801/IDQ60801.94266.json